Time;durP1;ratioP1;P1;durP2;ratioP2;P2;SDS_P1;SDS_P2;PMS_P1;PMS_P2;Temp;Humidity;BMP_temperature;BMP_pressure;BME280_temperature;BME280_humidity;BME280_pressure;Samples;Min_cycle;Max_cycle;Signal;HPM_P1;HPM_P2
2024/01/01 00:00:55;;;;;;;50.57;27.87;;;3.10;1.00;;;;;;10415119;28;20273;-81
2024/01/01 00:06:16;;;;;;;51.47;27.73;;;3.10;1.00;;;;;;10428882;28;20224;-81
2024/01/01 00:11:37;;;;;;;47.70;27.50;;;3.10;1.00;;;;;;10428666;28;20201;-80
2024/01/01 00:17:00;;;;;;;48.57;25.77;;;3.10;1.00;;;;;;10414129;28;20201;-81
2024/01/01 00:22:21;;;;;;;48.07;23.93;;;3.10;1.00;;;;;;10427997;28;20428;-82
2024/01/01 00:27:42;;;;;;;38.73;23.10;;;3.10;1.00;;;;;;10428055;28;20202;-81
2024/01/01 00:33:04;;;;;;;44.87;24.73;;;3.10;1.00;;;;;;10414355;28;20197;-81
2024/01/01 00:38:25;;;;;;;41.73;24.80;;;3.10;1.00;;;;;;10400742;28;20197;-84
2024/01/01 00:43:48;;;;;;;42.80;24.17;;;3.10;1.00;;;;;;10403872;28;20228;-82
2024/01/01 00:49:09;;;;;;;39.40;23.20;;;3.10;1.00;;;;;;10404120;28;20388;-81
2024/01/01 00:54:31;;;;;;;44.53;25.73;;;3.10;1.00;;;;;;10439503;28;20244;-81
2024/01/01 00:59:52;;;;;;;41.53;23.63;;;3.10;1.00;;;;;;10413015;28;20518;-81
2024/01/01 01:05:13;;;;;;;36.53;20.33;;;3.10;1.00;;;;;;10427213;28;20409;-82
2024/01/01 01:10:34;;;;;;;45.53;24.07;;;3.20;1.00;;;;;;10426650;28;20395;-81
2024/01/01 01:15:56;;;;;;;41.30;23.53;;;3.20;1.00;;;;;;10425512;28;20215;-81
2024/01/01 01:21:17;;;;;;;40.50;23.47;;;3.20;1.00;;;;;;10412346;28;20552;-81
2024/01/01 01:26:39;;;;;;;40.47;24.00;;;3.20;1.00;;;;;;10440041;28;20217;-81
2024/01/01 01:32:00;;;;;;;45.10;25.37;;;3.10;1.00;;;;;;10425927;28;20198;-83
2024/01/01 01:37:21;;;;;;;39.80;23.17;;;3.10;1.00;;;;;;10412037;28;20200;-81
2024/01/01 01:42:46;;;;;;;38.63;23.07;;;3.10;1.00;;;;;;10407541;28;20249;-82
2024/01/01 01:48:08;;;;;;;42.37;25.03;;;3.10;1.00;;;;;;10421620;28;20212;-81
2024/01/01 01:53:30;;;;;;;48.97;26.37;;;3.20;1.00;;;;;;10439083;28;20229;-83
2024/01/01 01:58:52;;;;;;;44.63;24.00;;;3.10;1.00;;;;;;10424710;28;20372;-82
2024/01/01 02:04:15;;;;;;;45.93;24.40;;;3.10;1.00;;;;;;10425113;28;20291;-82
2024/01/01 02:09:38;;;;;;;42.27;25.50;;;3.10;1.00;;;;;;10424927;28;20192;-83
2024/01/01 02:14:59;;;;;;;40.07;25.40;;;3.10;1.00;;;;;;10387922;28;20248;-82
2024/01/01 02:20:21;;;;;;;49.27;27.00;;;3.10;1.00;;;;;;10397178;28;20196;-82
2024/01/01 02:25:43;;;;;;;45.83;25.30;;;3.10;1.00;;;;;;10400048;28;20224;-82
2024/01/01 02:31:04;;;;;;;40.67;24.43;;;3.00;1.00;;;;;;10437285;28;20192;-82
2024/01/01 02:36:27;;;;;;;40.27;23.47;;;3.00;1.00;;;;;;10411232;28;20223;-82
2024/01/01 02:41:48;;;;;;;45.50;24.70;;;3.10;1.00;;;;;;10397400;28;20217;-82
2024/01/01 02:47:09;;;;;;;40.63;22.70;;;3.10;1.00;;;;;;10386564;28;20247;-81
2024/01/01 02:52:31;;;;;;;46.07;25.10;;;3.00;1.00;;;;;;10422653;28;20189;-84
2024/01/01 02:57:52;;;;;;;45.40;24.53;;;3.00;1.00;;;;;;10403697;28;20206;-82
2024/01/01 03:03:14;;;;;;;38.93;23.13;;;3.00;1.00;;;;;;10381445;28;20247;-83
2024/01/01 03:08:37;;;;;;;46.40;24.53;;;3.10;1.00;;;;;;10395277;28;20202;-82
2024/01/01 03:13:58;;;;;;;41.63;23.33;;;3.00;1.00;;;;;;10398276;28;20201;-81
2024/01/01 03:19:20;;;;;;;33.90;22.10;;;3.00;5.80;;;;;;10395053;28;20201;-82
2024/01/01 03:24:42;;;;;;;40.27;22.70;;;3.00;10.70;;;;;;10408763;28;20511;-84
2024/01/01 03:30:08;;;;;;;45.43;24.60;;;3.00;28.70;;;;;;10434161;28;20373;-82
2024/01/01 03:35:31;;;;;;;38.27;21.93;;;3.00;80.30;;;;;;10421677;28;20490;-82
2024/01/01 03:40:52;;;;;;;37.00;22.07;;;3.00;56.00;;;;;;10435204;28;20202;-82
2024/01/01 03:46:13;;;;;;;48.63;24.57;;;3.10;10.20;;;;;;10398968;28;20256;-83
2024/01/01 03:51:35;;;;;;;37.20;23.23;;;3.00;5.40;;;;;;10378660;28;20276;-82
2024/01/01 03:56:56;;;;;;;39.63;22.13;;;3.00;32.30;;;;;;10407430;28;20275;-82
2024/01/01 04:02:18;;;;;;;38.93;24.10;;;3.10;32.60;;;;;;10421544;28;20200;-84
2024/01/01 04:07:39;;;;;;;41.33;21.93;;;3.10;40.40;;;;;;10421281;28;20228;-85
2024/01/01 04:13:01;;;;;;;42.60;26.70;;;3.10;11.30;;;;;;10397428;28;20287;-82
2024/01/01 04:18:22;;;;;;;35.47;22.03;;;3.00;1.00;;;;;;10380292;28;20276;-81
2024/01/01 04:23:44;;;;;;;44.57;25.87;;;3.10;36.60;;;;;;10407596;28;20209;-82
2024/01/01 04:29:05;;;;;;;47.13;26.37;;;3.10;70.60;;;;;;10431100;28;20247;-85
2024/01/01 04:34:27;;;;;;;49.20;27.07;;;3.00;30.00;;;;;;10423575;28;20272;-82
2024/01/01 04:39:48;;;;;;;49.50;25.97;;;3.00;48.90;;;;;;10441813;28;20197;-82
2024/01/01 04:45:11;;;;;;;49.40;26.77;;;2.90;45.10;;;;;;10411329;28;20241;-84
2024/01/01 04:50:32;;;;;;;49.57;26.90;;;2.90;91.50;;;;;;10415695;28;20204;-83
2024/01/01 04:55:54;;;;;;;49.13;26.53;;;2.90;99.90;;;;;;10412532;28;20248;-82
2024/01/01 05:01:15;;;;;;;52.47;29.10;;;3.00;99.90;;;;;;10400154;28;20201;-83
2024/01/01 05:06:37;;;;;;;55.13;28.67;;;3.00;99.90;;;;;;10411759;28;20304;-84
2024/01/01 05:11:58;;;;;;;56.33;29.57;;;3.00;99.90;;;;;;10400851;28;20193;-85
2024/01/01 05:17:19;;;;;;;59.57;31.73;;;2.90;99.90;;;;;;10386061;28;20228;-83
2024/01/01 05:22:41;;;;;;;56.27;29.27;;;2.90;99.90;;;;;;10385367;28;20206;-84
2024/01/01 05:28:05;;;;;;;58.33;29.23;;;3.00;99.90;;;;;;10394536;28;20540;-83
2024/01/01 05:33:26;;;;;;;49.97;28.07;;;3.00;99.90;;;;;;10425905;28;20231;-83
2024/01/01 05:38:47;;;;;;;52.87;28.83;;;3.00;99.90;;;;;;10424622;28;20201;-82
2024/01/01 05:44:09;;;;;;;57.73;32.10;;;3.00;99.90;;;;;;10411499;28;20259;-82
2024/01/01 05:49:30;;;;;;;60.50;34.20;;;3.10;99.90;;;;;;10439014;28;20196;-81
2024/01/01 05:54:51;;;;;;;52.93;28.77;;;3.10;99.90;;;;;;10426453;28;20255;-81
2024/01/01 06:00:13;;;;;;;70.07;39.23;;;3.10;99.90;;;;;;10438783;28;20191;-81
2024/01/01 06:05:35;;;;;;;59.47;33.07;;;3.10;99.90;;;;;;10423372;28;20267;-81
2024/01/01 06:10:56;;;;;;;57.67;33.10;;;3.10;99.90;;;;;;10383447;28;20197;-82
2024/01/01 06:16:18;;;;;;;54.17;30.10;;;3.10;99.90;;;;;;10386453;28;20208;-82
2024/01/01 06:21:40;;;;;;;48.70;29.33;;;3.10;99.90;;;;;;10382750;28;20285;-82
2024/01/01 06:27:01;;;;;;;53.83;30.33;;;3.10;99.90;;;;;;10424850;28;20221;-83
2024/01/01 06:32:22;;;;;;;51.37;29.60;;;3.10;99.90;;;;;;10438250;28;20477;-82
2024/01/01 06:37:43;;;;;;;54.93;30.90;;;3.00;99.90;;;;;;10410142;28;20519;-82
2024/01/01 06:43:05;;;;;;;55.93;32.50;;;3.10;99.90;;;;;;10395734;28;20415;-81
2024/01/01 06:48:26;;;;;;;57.83;32.77;;;3.20;99.90;;;;;;10424714;28;20435;-83
2024/01/01 06:53:48;;;;;;;60.80;33.53;;;3.20;99.90;;;;;;10408340;28;20459;-82
2024/01/01 06:59:13;;;;;;;53.63;31.50;;;3.20;99.90;;;;;;10436738;28;20268;-82
2024/01/01 07:04:34;;;;;;;53.90;31.57;;;3.30;99.90;;;;;;10422858;28;20223;-81
2024/01/01 07:09:55;;;;;;;58.17;34.17;;;3.30;99.90;;;;;;10436461;28;20243;-82
2024/01/01 07:15:17;;;;;;;53.80;31.53;;;3.30;99.90;;;;;;10407426;28;20202;-82
2024/01/01 07:20:38;;;;;;;61.60;34.87;;;3.30;99.90;;;;;;10395328;28;20469;-82
2024/01/01 07:25:59;;;;;;;67.97;35.57;;;3.30;99.90;;;;;;10403392;28;20228;-83
2024/01/01 07:31:22;;;;;;;55.00;32.43;;;3.40;99.90;;;;;;10408034;28;20194;-83
2024/01/01 07:36:43;;;;;;;59.20;34.47;;;3.40;99.90;;;;;;10421683;28;20205;-81
2024/01/01 07:42:04;;;;;;;58.20;32.50;;;3.40;99.90;;;;;;10423235;28;20231;-81
2024/01/01 07:47:26;;;;;;;59.77;32.07;;;3.40;99.90;;;;;;10383792;28;20591;-84
2024/01/01 07:52:47;;;;;;;54.40;29.57;;;3.40;99.90;;;;;;10435271;28;20193;-81
2024/01/01 07:58:09;;;;;;;60.53;32.50;;;3.40;99.90;;;;;;10421052;28;20201;-81
2024/01/01 08:03:30;;;;;;;63.93;35.03;;;3.40;99.90;;;;;;10399275;28;20281;-84
2024/01/01 08:08:51;;;;;;;60.40;32.77;;;3.40;99.90;;;;;;10377627;28;20217;-81
2024/01/01 08:14:13;;;;;;;62.10;32.03;;;3.40;99.90;;;;;;10401773;28;20201;-80
2024/01/01 08:19:34;;;;;;;56.53;32.03;;;3.40;99.90;;;;;;10401489;28;20210;-82
2024/01/01 08:24:56;;;;;;;57.20;33.50;;;3.50;99.90;;;;;;10401260;28;20303;-81
2024/01/01 08:30:17;;;;;;;62.90;33.23;;;3.50;99.90;;;;;;10417446;28;20198;-83
2024/01/01 08:35:38;;;;;;;69.37;37.47;;;3.50;99.90;;;;;;10373417;28;20277;-82
2024/01/01 08:41:00;;;;;;;74.37;40.07;;;3.50;99.90;;;;;;10406902;28;20210;-82
2024/01/01 08:46:23;;;;;;;75.23;38.97;;;3.50;99.90;;;;;;10400993;28;20273;-81
2024/01/01 08:51:43;;;;;;;77.63;41.23;;;3.60;99.90;;;;;;10425402;28;20240;-86
2024/01/01 08:57:05;;;;;;;87.93;46.33;;;3.70;99.90;;;;;;10426836;28;20234;-82
2024/01/01 09:02:26;;;;;;;73.60;39.43;;;3.70;99.90;;;;;;10413398;28;20198;-86
2024/01/01 09:07:48;;;;;;;75.50;40.40;;;3.70;99.90;;;;;;10412723;28;20491;-81
2024/01/01 09:13:11;;;;;;;78.30;41.30;;;3.70;99.90;;;;;;10384557;28;20241;-83
2024/01/01 09:18:32;;;;;;;77.90;42.20;;;3.70;99.90;;;;;;10400753;28;20742;-82
2024/01/01 09:24:01;;;;;;;78.30;40.17;;;3.70;99.90;;;;;;10385311;28;20211;-82
2024/01/01 09:29:23;;;;;;;67.43;36.83;;;3.70;99.90;;;;;;10418463;28;20252;-81
2024/01/01 09:34:44;;;;;;;71.83;37.43;;;3.80;99.90;;;;;;10432423;28;20488;-81
2024/01/01 09:40:06;;;;;;;71.37;37.50;;;3.90;99.90;;;;;;10401683;28;20228;-81
2024/01/01 09:45:29;;;;;;;92.90;46.27;;;3.90;99.90;;;;;;10384423;28;20268;-85
2024/01/01 09:50:51;;;;;;;86.43;46.17;;;3.90;99.90;;;;;;10429252;28;20255;-81
2024/01/01 09:56:13;;;;;;;90.73;45.80;;;4.00;99.90;;;;;;10410863;28;20238;-81
2024/01/01 10:01:38;;;;;;;81.70;40.77;;;4.00;99.90;;;;;;10424471;28;20484;-85
2024/01/01 10:06:59;;;;;;;95.27;47.00;;;4.00;93.70;;;;;;10438360;28;20226;-84
2024/01/01 10:12:22;;;;;;;82.97;40.47;;;4.00;25.90;;;;;;10401268;28;20203;-81
2024/01/01 10:17:43;;;;;;;89.90;44.50;;;4.00;1.00;;;;;;10383043;28;20207;-81
2024/01/01 10:23:25;;;;;;;77.60;41.07;;;4.00;1.00;;;;;;10382701;28;20277;-81
2024/01/01 10:28:46;;;;;;;88.00;44.70;;;4.00;1.00;;;;;;10411313;28;20523;-83
2024/01/01 10:34:08;;;;;;;67.87;36.70;;;4.00;41.10;;;;;;10427056;28;20273;-81
2024/01/01 10:39:33;;;;;;;62.20;33.30;;;4.00;22.60;;;;;;10410054;28;20201;-81
2024/01/01 10:44:54;;;;;;;64.70;35.07;;;4.10;24.30;;;;;;10396102;28;20237;-84
2024/01/01 10:50:28;;;;;;;77.27;35.73;;;4.10;1.00;;;;;;10422206;28;20220;-81
2024/01/01 10:56:01;;;;;;;81.37;40.87;;;4.10;1.00;;;;;;10435977;28;20591;-80
2024/01/01 11:01:24;;;;;;;135.73;59.10;;;4.10;1.00;;;;;;10422451;28;20195;-81
2024/01/01 11:06:45;;;;;;;102.53;48.00;;;4.10;1.00;;;;;;10406091;28;20531;-82
2024/01/01 11:12:06;;;;;;;89.60;44.87;;;4.10;4.10;;;;;;10395146;28;20247;-81
2024/01/01 11:17:28;;;;;;;116.20;60.03;;;4.00;1.00;;;;;;10381289;28;20208;-81
2024/01/01 11:22:49;;;;;;;110.83;55.30;;;4.00;1.00;;;;;;10395802;28;20236;-82
2024/01/01 11:28:39;;;;;;;89.43;43.37;;;4.00;3.60;;;;;;10418649;28;20226;-82
2024/01/01 11:34:05;;;;;;;65.70;33.10;;;4.00;17.50;;;;;;10410365;28;20198;-81
2024/01/01 11:39:26;;;;;;;52.47;29.43;;;4.00;65.40;;;;;;10401371;28;20228;-81
2024/01/01 11:44:48;;;;;;;72.57;37.07;;;4.10;32.40;;;;;;10388817;28;20229;-81
2024/01/01 11:50:10;;;;;;;74.83;37.77;;;4.10;1.00;;;;;;10428396;28;20198;-81
2024/01/01 11:55:31;;;;;;;69.67;34.03;;;4.10;1.00;;;;;;10443155;28;20313;-83
2024/01/01 12:00:53;;;;;;;69.53;35.73;;;4.10;8.30;;;;;;10429656;28;20216;-81
2024/01/01 12:06:15;;;;;;;59.20;33.00;;;4.10;12.80;;;;;;10414307;28;20547;-82
2024/01/01 12:11:41;;;;;;;60.57;30.00;;;4.20;99.90;;;;;;10442710;28;20192;-81
2024/01/01 12:17:05;;;;;;;59.00;30.13;;;4.20;31.20;;;;;;10429018;28;20241;-81
2024/01/01 12:22:26;;;;;;;72.87;36.67;;;4.20;1.00;;;;;;10428445;28;20228;-81
2024/01/01 12:28:07;;;;;;;110.40;52.27;;;4.20;1.00;;;;;;10442197;28;20225;-83
2024/01/01 12:33:29;;;;;;;61.13;33.43;;;4.20;1.00;;;;;;10432780;28;20258;-81
2024/01/01 12:38:50;;;;;;;55.50;30.07;;;4.20;1.00;;;;;;10387416;28;20217;-82
2024/01/01 12:44:12;;;;;;;70.03;37.03;;;4.20;18.50;;;;;;10400819;28;20209;-83
2024/01/01 12:49:34;;;;;;;64.83;33.70;;;4.20;14.00;;;;;;10407730;28;20208;-85
2024/01/01 12:54:55;;;;;;;61.23;31.60;;;4.20;1.00;;;;;;10441701;28;20235;-85
2024/01/01 13:00:17;;;;;;;54.73;29.07;;;4.20;1.00;;;;;;10427733;28;20252;-82
2024/01/01 13:05:38;;;;;;;45.37;26.27;;;4.20;1.00;;;;;;10401074;28;20229;-82
2024/01/01 13:11:00;;;;;;;62.20;31.13;;;4.20;1.00;;;;;;10399702;28;20544;-81
2024/01/01 13:16:21;;;;;;;83.90;40.00;;;4.20;1.00;;;;;;10399207;28;20203;-82
2024/01/01 13:21:42;;;;;;;90.67;44.47;;;4.30;1.00;;;;;;10399384;28;20186;-81
2024/01/01 13:27:04;;;;;;;65.53;33.87;;;4.30;1.00;;;;;;10400062;28;20232;-82
2024/01/01 13:32:25;;;;;;;56.07;30.37;;;4.20;1.00;;;;;;10423414;28;20198;-82
2024/01/01 13:37:46;;;;;;;76.83;41.30;;;4.30;1.00;;;;;;10431396;28;20205;-85
2024/01/01 13:43:09;;;;;;;65.60;34.63;;;4.20;1.00;;;;;;10440247;28;20200;-83
2024/01/01 13:48:30;;;;;;;57.40;32.03;;;4.30;14.60;;;;;;10424985;28;20256;-81
2024/01/01 13:53:51;;;;;;;54.63;31.43;;;4.30;1.00;;;;;;10438690;28;20307;-81
2024/01/01 13:59:13;;;;;;;58.27;31.23;;;4.30;1.00;;;;;;10424283;28;20522;-81
2024/01/01 14:04:34;;;;;;;53.33;28.83;;;4.30;1.00;;;;;;10390895;28;20222;-81
2024/01/01 14:09:55;;;;;;;73.47;38.70;;;4.20;1.00;;;;;;10397364;28;20205;-82
2024/01/01 14:15:19;;;;;;;64.30;33.83;;;4.20;1.00;;;;;;10383141;28;20201;-82
2024/01/01 14:20:41;;;;;;;62.47;32.23;;;4.30;1.00;;;;;;10383120;28;20473;-82
2024/01/01 14:26:03;;;;;;;58.33;31.60;;;4.30;1.00;;;;;;10402794;28;20256;-81
2024/01/01 14:31:25;;;;;;;67.17;36.70;;;4.30;1.00;;;;;;10423386;28;20421;-81
2024/01/01 14:36:46;;;;;;;81.37;41.70;;;4.20;1.00;;;;;;10434940;28;20252;-82
2024/01/01 14:42:07;;;;;;;67.60;36.43;;;4.20;1.00;;;;;;10409451;28;20432;-82
2024/01/01 14:47:28;;;;;;;59.87;31.73;;;4.20;1.00;;;;;;10439023;28;20445;-83
2024/01/01 14:52:50;;;;;;;62.67;32.03;;;4.20;1.00;;;;;;10436646;28;20454;-81
2024/01/01 14:58:11;;;;;;;62.50;31.97;;;4.20;1.00;;;;;;10408575;28;20204;-82
2024/01/01 15:03:33;;;;;;;71.27;38.93;;;4.20;1.00;;;;;;10409437;28;20429;-81
2024/01/01 15:08:54;;;;;;;66.77;35.83;;;4.10;1.00;;;;;;10381694;28;20230;-82
2024/01/01 15:14:15;;;;;;;67.63;33.37;;;4.10;1.00;;;;;;10394251;28;20556;-82
2024/01/01 15:19:36;;;;;;;59.53;30.90;;;4.20;1.00;;;;;;10381473;28;20514;-82
2024/01/01 15:24:58;;;;;;;66.67;31.80;;;4.20;7.40;;;;;;10380859;28;20271;-81
2024/01/01 15:30:19;;;;;;;59.93;30.80;;;4.20;15.70;;;;;;10408946;28;20218;-82
2024/01/01 15:35:41;;;;;;;61.83;30.47;;;4.20;1.00;;;;;;10398966;28;20195;-82
2024/01/01 15:41:02;;;;;;;69.93;36.90;;;4.30;1.00;;;;;;10394635;28;20245;-83
2024/01/01 15:46:23;;;;;;;70.63;37.40;;;4.20;1.00;;;;;;10394739;28;20480;-82
2024/01/01 15:51:44;;;;;;;72.70;37.20;;;4.20;1.00;;;;;;10393131;28;20206;-82
2024/01/01 15:57:06;;;;;;;81.23;39.90;;;4.20;1.00;;;;;;10420986;28;20237;-81
2024/01/01 16:02:27;;;;;;;68.63;35.27;;;4.20;1.00;;;;;;10421227;28;20385;-82
2024/01/01 16:07:48;;;;;;;73.23;37.17;;;4.20;1.00;;;;;;10434752;28;20229;-81
2024/01/01 16:13:10;;;;;;;77.87;38.07;;;4.20;1.00;;;;;;10411052;28;20278;-81
2024/01/01 16:18:31;;;;;;;87.20;42.00;;;4.30;1.00;;;;;;10380385;28;20240;-82
2024/01/01 16:23:52;;;;;;;82.97;42.50;;;4.30;1.00;;;;;;10397801;28;20205;-81
2024/01/01 16:29:14;;;;;;;112.40;54.50;;;4.20;24.80;;;;;;10420202;28;20402;-81
2024/01/01 16:34:35;;;;;;;108.27;53.30;;;4.20;48.20;;;;;;10432028;28;20266;-82
2024/01/01 16:39:56;;;;;;;92.33;46.13;;;4.30;14.20;;;;;;10400914;28;20204;-82
2024/01/01 16:45:18;;;;;;;90.83;40.07;;;4.20;1.00;;;;;;10414917;28;20255;-82
2024/01/01 16:50:39;;;;;;;78.63;39.53;;;4.20;9.50;;;;;;10427194;28;20202;-81
2024/01/01 16:56:01;;;;;;;87.13;41.03;;;4.20;39.20;;;;;;10441173;28;20239;-82
2024/01/01 17:01:24;;;;;;;95.07;48.17;;;4.20;52.70;;;;;;10442411;28;20194;-84
2024/01/01 17:06:46;;;;;;;91.00;44.33;;;4.30;99.90;;;;;;10426877;28;20437;-81
2024/01/01 17:12:07;;;;;;;86.80;43.73;;;4.30;71.40;;;;;;10426461;28;20198;-83
2024/01/01 17:17:28;;;;;;;77.47;39.07;;;4.30;34.80;;;;;;10426956;28;20229;-81
2024/01/01 17:22:50;;;;;;;78.87;42.33;;;4.30;70.70;;;;;;10420197;28;20201;-81
2024/01/01 17:28:14;;;;;;;102.00;49.63;;;4.30;99.90;;;;;;10409232;28;20235;-81
2024/01/01 17:33:35;;;;;;;91.13;43.53;;;4.30;99.90;;;;;;10425115;28;20241;-84
2024/01/01 17:38:56;;;;;;;79.63;39.93;;;4.40;99.90;;;;;;10401270;28;20209;-84
2024/01/01 17:44:17;;;;;;;92.43;43.33;;;4.40;99.90;;;;;;10401411;28;20274;-84
2024/01/01 17:49:39;;;;;;;98.77;44.37;;;4.40;64.90;;;;;;10433837;28;20579;-81
2024/01/01 17:55:01;;;;;;;82.17;40.20;;;4.30;67.50;;;;;;10421207;28;20412;-86
2024/01/01 18:00:22;;;;;;;77.90;39.27;;;4.30;99.90;;;;;;10425414;28;20228;-83
2024/01/01 18:05:43;;;;;;;69.30;34.67;;;4.40;99.90;;;;;;10438930;28;20242;-85
2024/01/01 18:11:05;;;;;;;70.00;34.90;;;4.30;99.90;;;;;;10424438;28;20206;-81
2024/01/01 18:16:26;;;;;;;77.63;38.33;;;4.40;99.90;;;;;;10424193;28;20513;-82
2024/01/01 18:21:48;;;;;;;71.90;36.20;;;4.50;99.90;;;;;;10396409;28;20202;-82
2024/01/01 18:27:09;;;;;;;59.33;30.47;;;4.50;99.90;;;;;;10412418;28;20229;-81
2024/01/01 18:32:30;;;;;;;63.47;30.93;;;4.50;99.90;;;;;;10423946;28;20193;-84
2024/01/01 18:37:52;;;;;;;65.20;33.33;;;4.50;99.90;;;;;;10390693;28;20214;-84
2024/01/01 18:43:13;;;;;;;60.60;31.70;;;4.50;99.90;;;;;;10421481;28;20399;-83
2024/01/01 18:48:35;;;;;;;62.30;30.47;;;4.50;99.90;;;;;;10423999;28;20405;-81
2024/01/01 18:53:56;;;;;;;68.07;33.70;;;4.50;99.90;;;;;;10429033;28;20249;-81
2024/01/01 18:59:17;;;;;;;70.10;34.00;;;4.50;99.90;;;;;;10422853;28;20202;-81
2024/01/01 19:04:39;;;;;;;71.57;36.47;;;4.50;99.90;;;;;;10422486;28;20211;-82
2024/01/01 19:10:01;;;;;;;82.57;41.33;;;4.60;99.90;;;;;;10422624;28;20203;-81
2024/01/01 19:15:23;;;;;;;97.03;45.33;;;4.50;99.90;;;;;;10436394;28;20205;-81
2024/01/01 19:20:44;;;;;;;99.53;47.23;;;4.50;99.90;;;;;;10414798;28;20252;-81
2024/01/01 19:26:06;;;;;;;92.47;46.43;;;4.60;99.90;;;;;;10387764;28;20221;-82
2024/01/01 19:31:27;;;;;;;104.70;47.43;;;4.50;99.90;;;;;;10422168;28;20197;-80
2024/01/01 19:36:48;;;;;;;108.43;53.87;;;4.50;99.90;;;;;;10435249;28;20227;-81
2024/01/01 19:42:10;;;;;;;114.27;56.97;;;4.50;99.90;;;;;;10435458;28;20272;-81
2024/01/01 19:47:31;;;;;;;117.60;56.93;;;4.50;99.90;;;;;;10421889;28;20244;-82
2024/01/01 19:52:52;;;;;;;115.37;55.20;;;4.50;99.90;;;;;;10410026;28;20316;-81
2024/01/01 19:58:15;;;;;;;136.67;59.10;;;4.50;99.90;;;;;;10424773;28;20290;-82
2024/01/01 20:03:36;;;;;;;115.77;53.43;;;4.50;99.90;;;;;;10402490;28;20235;-81
2024/01/01 20:08:58;;;;;;;104.93;49.13;;;4.50;99.90;;;;;;10388296;28;20457;-81
2024/01/01 20:14:20;;;;;;;122.00;54.83;;;4.50;99.90;;;;;;10374667;28;20366;-81
2024/01/01 20:19:41;;;;;;;178.20;60.73;;;4.50;99.90;;;;;;10401373;28;20241;-81
2024/01/01 20:25:03;;;;;;;220.73;72.70;;;4.50;99.90;;;;;;10387631;28;20210;-81
2024/01/01 20:30:24;;;;;;;169.47;60.23;;;4.60;99.90;;;;;;10387670;28;20199;-81
2024/01/01 20:35:45;;;;;;;148.33;55.73;;;4.60;99.90;;;;;;10405307;28;20202;-81
2024/01/01 20:41:10;;;;;;;140.67;52.50;;;4.60;91.90;;;;;;10400748;28;20198;-81
2024/01/01 20:46:31;;;;;;;192.37;71.97;;;4.50;99.90;;;;;;10400401;28;20223;-82
2024/01/01 20:51:52;;;;;;;140.07;57.97;;;4.60;99.90;;;;;;10417034;28;20285;-82
2024/01/01 20:57:14;;;;;;;113.30;49.03;;;4.60;99.90;;;;;;10413537;28;20779;-81
2024/01/01 21:02:39;;;;;;;98.33;45.00;;;4.60;83.20;;;;;;10406663;28;20394;-81
2024/01/01 21:08:03;;;;;;;118.07;51.67;;;4.60;58.40;;;;;;10413155;28;20302;-81
2024/01/01 21:13:25;;;;;;;111.30;48.67;;;4.60;99.90;;;;;;10399673;28;20205;-82
2024/01/01 21:18:46;;;;;;;97.43;43.50;;;4.60;99.90;;;;;;10399245;28;20431;-81
2024/01/01 21:24:07;;;;;;;101.83;45.47;;;4.60;99.90;;;;;;10399284;28;20241;-81
2024/01/01 21:29:29;;;;;;;117.50;51.80;;;4.60;99.90;;;;;;10405884;28;20230;-81
2024/01/01 21:34:50;;;;;;;114.67;52.93;;;4.60;99.90;;;;;;10402554;28;20203;-83
2024/01/01 21:40:15;;;;;;;134.73;59.73;;;4.70;99.90;;;;;;10387682;28;20282;-82
2024/01/01 21:45:36;;;;;;;151.23;74.40;;;4.60;95.70;;;;;;10397911;28;20442;-81
2024/01/01 21:50:58;;;;;;;127.03;60.80;;;4.70;99.90;;;;;;10403134;28;20213;-82
2024/01/01 21:56:19;;;;;;;106.03;48.93;;;4.70;99.90;;;;;;10438291;28;20463;-81
2024/01/01 22:01:41;;;;;;;107.93;49.13;;;4.70;99.90;;;;;;10423765;28;20496;-83
2024/01/01 22:07:03;;;;;;;93.80;42.93;;;4.80;85.30;;;;;;10397659;28;20277;-81
2024/01/01 22:12:24;;;;;;;89.63;41.00;;;4.80;95.60;;;;;;10370070;28;20195;-82
2024/01/01 22:17:45;;;;;;;68.50;33.47;;;4.80;32.60;;;;;;10383265;28;20299;-82
2024/01/01 22:23:07;;;;;;;75.97;34.97;;;4.80;25.50;;;;;;10368987;28;20248;-81
2024/01/01 22:28:30;;;;;;;64.40;31.70;;;4.80;14.40;;;;;;10423131;28;20561;-82
2024/01/01 22:33:51;;;;;;;84.13;41.27;;;4.80;17.90;;;;;;10420062;28;20816;-82
2024/01/01 22:39:13;;;;;;;81.13;41.17;;;4.80;1.00;;;;;;10405185;28;20210;-81
2024/01/01 22:44:34;;;;;;;67.27;35.17;;;4.80;28.90;;;;;;10395917;28;20232;-83
2024/01/01 22:49:55;;;;;;;58.40;30.17;;;4.70;21.30;;;;;;10419782;28;20584;-82
2024/01/01 22:55:17;;;;;;;46.50;27.67;;;4.70;27.20;;;;;;10436509;28;20306;-83
2024/01/01 23:00:38;;;;;;;59.83;30.30;;;4.70;57.00;;;;;;10436439;28;20265;-83
2024/01/01 23:06:00;;;;;;;54.10;27.17;;;4.70;88.60;;;;;;10395166;28;20228;-81
2024/01/01 23:11:22;;;;;;;46.83;24.67;;;4.80;71.40;;;;;;10395222;28;20578;-82
2024/01/01 23:16:44;;;;;;;42.43;22.40;;;4.80;82.00;;;;;;10395373;28;20208;-82
2024/01/01 23:22:05;;;;;;;47.93;25.13;;;4.90;6.50;;;;;;10394981;28;20249;-82
2024/01/01 23:27:27;;;;;;;40.50;22.00;;;4.90;2.40;;;;;;10426395;28;20234;-81
2024/01/01 23:32:48;;;;;;;38.57;19.93;;;4.90;1.00;;;;;;10448546;28;20386;-85
2024/01/01 23:38:11;;;;;;;39.33;19.63;;;4.90;1.00;;;;;;10422336;28;20210;-82
2024/01/01 23:43:32;;;;;;;30.87;17.63;;;4.90;15.30;;;;;;10435452;28;20204;-82
2024/01/01 23:48:53;;;;;;;31.40;17.43;;;4.80;1.00;;;;;;10421547;28;20234;-82
2024/01/01 23:54:14;;;;;;;36.77;18.97;;;4.80;1.00;;;;;;10421427;28;20236;-84
2024/01/01 23:59:36;;;;;;;41.43;22.17;;;4.80;1.00;;;;;;10435749;28;20192;-82
